Time;durP1;ratioP1;P1;durP2;ratioP2;P2;SDS_P1;SDS_P2;PMS_P1;PMS_P2;Temp;Humidity;BMP_temperature;BMP_pressure;BME280_temperature;BME280_humidity;BME280_pressure;Samples;Min_cycle;Max_cycle;Signal;HPM_P1;HPM_P2
2023/07/31 00:01:19;;;;;;;15.77;5.15;;;17.20;99.90;;;;;;4861574;29;20042;-55
2023/07/31 00:03:47;;;;;;;14.55;4.80;;;17.10;99.90;;;;;;4861751;29;20105;-57
2023/07/31 00:06:13;;;;;;;12.15;4.75;;;17.10;99.90;;;;;;4861148;29;20059;-55
2023/07/31 00:08:40;;;;;;;11.20;4.40;;;17.10;99.90;;;;;;4861434;29;20053;-54
2023/07/31 00:11:07;;;;;;;14.95;4.10;;;17.00;99.90;;;;;;4861731;29;20056;-56
2023/07/31 00:13:34;;;;;;;8.93;3.80;;;17.00;99.90;;;;;;4861133;29;20057;-53
2023/07/31 00:16:00;;;;;;;9.77;3.63;;;17.00;99.90;;;;;;4861658;29;20131;-52
2023/07/31 00:18:27;;;;;;;12.40;3.78;;;17.00;99.90;;;;;;4861297;29;20078;-57
2023/07/31 00:20:54;;;;;;;9.50;3.25;;;16.90;99.90;;;;;;4861027;29;20350;-56
2023/07/31 00:23:21;;;;;;;7.95;3.13;;;16.90;99.90;;;;;;4861598;29;20057;-54
2023/07/31 00:25:48;;;;;;;7.20;2.97;;;16.90;99.90;;;;;;4845169;29;20081;-56
2023/07/31 00:28:14;;;;;;;6.55;2.50;;;16.90;99.90;;;;;;4861504;29;20041;-58
2023/07/31 00:30:41;;;;;;;8.30;2.92;;;16.90;99.90;;;;;;4859623;29;20501;-57
2023/07/31 00:33:08;;;;;;;6.38;2.85;;;16.90;99.90;;;;;;4860794;29;20053;-53
2023/07/31 00:35:36;;;;;;;8.40;2.30;;;16.90;99.90;;;;;;4860981;29;20038;-54
2023/07/31 00:38:03;;;;;;;6.68;2.60;;;16.90;99.90;;;;;;4861791;29;20048;-58
2023/07/31 00:40:30;;;;;;;7.03;2.50;;;16.90;99.90;;;;;;4864826;29;20077;-51
2023/07/31 00:42:58;;;;;;;5.07;2.40;;;17.00;99.90;;;;;;4865012;29;20037;-52
2023/07/31 00:45:28;;;;;;;5.82;2.03;;;17.00;99.90;;;;;;4864756;29;20380;-55
2023/07/31 00:47:55;;;;;;;6.10;1.95;;;17.00;99.90;;;;;;4864749;29;20045;-55
2023/07/31 00:50:23;;;;;;;5.15;1.92;;;17.00;99.90;;;;;;4864920;29;20043;-57
2023/07/31 00:52:50;;;;;;;5.20;1.98;;;17.00;99.90;;;;;;4864700;29;20050;-58
2023/07/31 00:55:17;;;;;;;5.50;1.70;;;17.00;99.90;;;;;;4847778;29;20052;-58
2023/07/31 00:57:44;;;;;;;7.22;1.75;;;17.00;99.90;;;;;;4863737;29;20045;-56
2023/07/31 01:00:11;;;;;;;5.15;1.63;;;17.00;99.90;;;;;;4848001;29;20492;-53
2023/07/31 01:02:38;;;;;;;3.78;1.40;;;17.00;99.90;;;;;;4863091;29;20072;-58
2023/07/31 01:05:05;;;;;;;4.20;1.30;;;17.10;99.90;;;;;;4847675;29;20053;-58
2023/07/31 01:07:31;;;;;;;2.58;1.00;;;17.10;99.90;;;;;;4848239;29;20049;-52
2023/07/31 01:09:58;;;;;;;3.80;1.10;;;17.10;99.90;;;;;;4847690;29;20049;-53
2023/07/31 01:12:25;;;;;;;3.17;1.05;;;17.10;99.90;;;;;;4864106;29;20747;-56
2023/07/31 01:14:52;;;;;;;2.38;1.00;;;17.10;99.90;;;;;;4864400;29;20046;-53
2023/07/31 01:17:19;;;;;;;3.80;1.17;;;17.10;99.90;;;;;;4848000;29;20045;-58
2023/07/31 01:19:46;;;;;;;4.18;1.08;;;17.20;99.90;;;;;;4864155;29;20049;-55
2023/07/31 01:22:13;;;;;;;2.28;0.85;;;17.20;99.90;;;;;;4847175;29;20456;-53
2023/07/31 01:24:40;;;;;;;2.92;1.27;;;17.20;99.90;;;;;;4847551;29;20064;-52
2023/07/31 01:27:08;;;;;;;3.75;1.00;;;17.20;99.90;;;;;;4863254;29;20049;-56
2023/07/31 01:29:34;;;;;;;3.22;1.20;;;17.20;99.90;;;;;;4863924;29;20063;-55
2023/07/31 01:32:01;;;;;;;3.00;0.93;;;17.20;99.90;;;;;;4862647;29;20045;-54
2023/07/31 01:34:28;;;;;;;3.45;0.90;;;17.20;99.90;;;;;;4862550;29;20490;-54
2023/07/31 01:36:55;;;;;;;3.20;1.10;;;17.20;99.90;;;;;;4863949;29;20053;-55
2023/07/31 01:39:22;;;;;;;2.13;0.88;;;17.20;99.90;;;;;;4847274;29;20106;-55
2023/07/31 01:41:49;;;;;;;2.72;0.77;;;17.30;99.90;;;;;;4862617;29;20057;-54
2023/07/31 01:44:16;;;;;;;2.47;0.90;;;17.30;99.90;;;;;;4864243;29;20041;-54
2023/07/31 01:46:43;;;;;;;3.05;1.40;;;17.30;99.90;;;;;;4864089;29;20053;-50
2023/07/31 01:49:10;;;;;;;2.25;1.02;;;17.30;99.90;;;;;;4863627;29;20397;-54
2023/07/31 01:51:36;;;;;;;2.67;1.20;;;17.30;99.90;;;;;;4863426;29;20497;-56
2023/07/31 01:54:03;;;;;;;2.60;1.38;;;17.30;99.90;;;;;;4862797;29;20133;-55
2023/07/31 01:56:30;;;;;;;2.30;1.30;;;17.30;99.90;;;;;;4863657;29;20041;-55
2023/07/31 01:58:57;;;;;;;2.05;1.00;;;17.30;99.90;;;;;;4863441;29;20048;-58
2023/07/31 02:01:24;;;;;;;6.38;1.25;;;17.30;99.90;;;;;;4863357;29;20049;-55
2023/07/31 02:03:50;;;;;;;3.13;1.30;;;17.30;99.90;;;;;;4863449;29;20041;-57
2023/07/31 02:06:17;;;;;;;2.28;1.15;;;17.30;99.90;;;;;;4862097;29;20079;-53
2023/07/31 02:08:44;;;;;;;2.20;1.10;;;17.40;99.90;;;;;;4861933;29;20132;-59
2023/07/31 02:11:12;;;;;;;2.60;1.20;;;17.40;99.90;;;;;;4862036;29;20053;-54
2023/07/31 02:13:39;;;;;;;3.03;1.30;;;17.40;99.90;;;;;;4863537;29;20051;-58
2023/07/31 02:16:05;;;;;;;4.63;1.65;;;17.40;99.90;;;;;;4861999;29;20059;-57
2023/07/31 02:18:32;;;;;;;3.20;1.45;;;17.40;99.90;;;;;;4863152;29;20041;-54
2023/07/31 02:21:01;;;;;;;2.75;1.23;;;17.40;99.90;;;;;;4863230;29;20105;-57
2023/07/31 02:23:27;;;;;;;3.10;1.20;;;17.40;99.90;;;;;;4862174;29;20046;-56
2023/07/31 02:25:54;;;;;;;4.00;1.35;;;17.40;99.90;;;;;;4862182;29;20057;-54
2023/07/31 02:28:21;;;;;;;3.65;1.17;;;17.40;99.90;;;;;;4863197;29;20049;-55
2023/07/31 02:30:48;;;;;;;4.15;1.20;;;17.40;99.90;;;;;;4846869;29;20453;-52
2023/07/31 02:33:15;;;;;;;3.28;1.30;;;17.40;99.90;;;;;;4863295;29;20101;-58
2023/07/31 02:35:42;;;;;;;3.70;1.40;;;17.40;99.90;;;;;;4862643;29;20113;-55
2023/07/31 02:38:09;;;;;;;2.70;0.98;;;17.50;99.90;;;;;;4862728;29;20045;-56
2023/07/31 02:40:36;;;;;;;3.90;1.20;;;17.50;99.90;;;;;;4846197;29;20054;-54
2023/07/31 02:43:02;;;;;;;3.95;1.35;;;17.50;99.90;;;;;;4863050;29;20057;-58
2023/07/31 02:45:29;;;;;;;3.70;1.30;;;17.50;99.90;;;;;;4862777;29;20468;-52
2023/07/31 02:47:56;;;;;;;3.80;1.17;;;17.50;99.90;;;;;;4862702;29;20054;-56
2023/07/31 02:50:23;;;;;;;3.28;1.15;;;17.50;99.90;;;;;;4861719;29;20097;-55
2023/07/31 02:52:49;;;;;;;3.35;1.35;;;17.50;99.90;;;;;;4845882;29;20178;-55
2023/07/31 02:55:16;;;;;;;3.35;1.30;;;17.50;99.90;;;;;;4861306;29;20052;-52
2023/07/31 02:57:43;;;;;;;4.22;1.50;;;17.50;99.90;;;;;;4862336;29;20047;-52
2023/07/31 03:00:10;;;;;;;2.55;1.17;;;17.60;99.90;;;;;;4862544;29;20124;-50
2023/07/31 03:02:37;;;;;;;4.85;1.60;;;17.50;99.90;;;;;;4860642;29;20049;-53
2023/07/31 03:05:04;;;;;;;4.18;1.27;;;17.50;99.90;;;;;;4861196;29;20420;-54
2023/07/31 03:07:30;;;;;;;3.13;1.20;;;17.60;99.90;;;;;;4862148;29;20087;-48
2023/07/31 03:09:57;;;;;;;3.53;1.20;;;17.50;99.90;;;;;;4862155;29;20486;-55
2023/07/31 03:12:24;;;;;;;4.30;1.35;;;17.50;99.90;;;;;;4862104;29;20054;-53
2023/07/31 03:14:51;;;;;;;2.88;1.10;;;17.60;99.90;;;;;;4860854;29;20042;-55
2023/07/31 03:17:17;;;;;;;3.35;1.35;;;17.60;99.90;;;;;;4845942;29;20049;-55
2023/07/31 03:19:44;;;;;;;3.97;1.23;;;17.60;99.90;;;;;;4861849;29;20482;-58
2023/07/31 03:22:11;;;;;;;3.45;1.27;;;17.60;99.90;;;;;;4862009;29;20049;-57
2023/07/31 03:24:38;;;;;;;3.63;1.20;;;17.60;99.90;;;;;;4861807;29;20049;-55
2023/07/31 03:27:04;;;;;;;5.00;1.10;;;17.60;99.90;;;;;;4862104;29;20045;-54
2023/07/31 03:29:31;;;;;;;3.20;1.13;;;17.60;99.90;;;;;;4860580;29;20045;-51
2023/07/31 03:31:59;;;;;;;2.95;1.23;;;17.70;99.90;;;;;;4861913;29;20042;-54
2023/07/31 03:34:27;;;;;;;3.75;1.30;;;17.70;99.90;;;;;;4861705;29;20058;-55
2023/07/31 03:36:53;;;;;;;4.57;1.38;;;17.70;99.90;;;;;;4860630;29;20473;-57
2023/07/31 03:39:20;;;;;;;3.65;1.20;;;17.70;99.90;;;;;;4845346;29;20049;-54
2023/07/31 03:41:47;;;;;;;3.85;1.23;;;17.70;99.90;;;;;;4861499;29;20476;-57
2023/07/31 03:44:16;;;;;;;2.47;1.10;;;17.70;99.90;;;;;;4844944;29;20053;-56
2023/07/31 03:46:43;;;;;;;4.80;1.00;;;17.70;99.90;;;;;;4860279;29;20050;-50
2023/07/31 03:49:09;;;;;;;4.13;1.20;;;17.70;99.90;;;;;;4861621;29;20053;-54
2023/07/31 03:51:36;;;;;;;2.65;1.00;;;17.70;99.90;;;;;;4860910;29;20053;-56
2023/07/31 03:54:03;;;;;;;2.30;0.98;;;17.70;99.90;;;;;;4861846;29;20434;-58
2023/07/31 03:56:30;;;;;;;2.72;1.00;;;17.70;99.90;;;;;;4861909;29;20042;-55
2023/07/31 03:59:01;;;;;;;2.42;0.80;;;17.80;99.90;;;;;;4861515;29;20048;-50
2023/07/31 04:01:28;;;;;;;2.40;0.90;;;17.80;99.90;;;;;;4860209;29;20045;-57
2023/07/31 04:03:55;;;;;;;2.38;0.93;;;17.80;99.90;;;;;;4861607;29;20041;-55
2023/07/31 04:06:21;;;;;;;2.05;0.80;;;17.80;99.90;;;;;;4861699;29;20042;-55
2023/07/31 04:08:48;;;;;;;3.40;0.80;;;17.80;99.90;;;;;;4861190;29;20064;-55
2023/07/31 04:11:15;;;;;;;2.17;0.93;;;17.80;99.90;;;;;;4861787;29;20038;-56
2023/07/31 04:13:42;;;;;;;2.67;1.02;;;17.80;99.90;;;;;;4860967;29;20045;-54
2023/07/31 04:16:09;;;;;;;2.90;0.88;;;17.80;99.90;;;;;;4861827;29;20045;-54
2023/07/31 04:18:35;;;;;;;2.00;0.70;;;17.80;99.90;;;;;;4861215;29;20041;-53
2023/07/31 04:21:02;;;;;;;3.60;1.15;;;17.90;99.90;;;;;;4861661;29;20042;-52
2023/07/31 04:23:29;;;;;;;2.88;1.00;;;17.90;99.90;;;;;;4861664;29;20046;-53
2023/07/31 04:25:56;;;;;;;3.08;1.23;;;17.90;99.90;;;;;;4861013;29;20056;-54
2023/07/31 04:28:22;;;;;;;2.35;1.00;;;17.90;99.90;;;;;;4861741;29;20042;-58
2023/07/31 04:30:49;;;;;;;2.72;0.90;;;17.90;99.90;;;;;;4861070;29;20481;-55
2023/07/31 04:33:16;;;;;;;2.00;0.90;;;17.90;99.90;;;;;;4861073;29;20045;-55
2023/07/31 04:35:43;;;;;;;2.60;0.73;;;17.90;99.90;;;;;;4861235;29;20384;-55
2023/07/31 04:38:10;;;;;;;2.60;0.93;;;17.90;99.90;;;;;;4861301;29;20041;-55
2023/07/31 04:40:37;;;;;;;3.17;1.10;;;17.90;99.90;;;;;;4861062;29;20042;-53
2023/07/31 04:43:04;;;;;;;3.40;0.82;;;18.00;99.90;;;;;;4860995;29;20050;-56
2023/07/31 04:45:31;;;;;;;3.63;1.00;;;17.90;99.90;;;;;;4860937;29;20053;-57
2023/07/31 04:47:58;;;;;;;3.22;0.95;;;18.00;99.90;;;;;;4860714;29;20097;-52
2023/07/31 04:50:25;;;;;;;2.97;0.90;;;18.00;99.90;;;;;;4860801;29;20078;-54
2023/07/31 04:52:51;;;;;;;2.70;1.05;;;18.00;99.90;;;;;;4860811;29;20053;-52
2023/07/31 04:55:18;;;;;;;2.00;0.90;;;18.00;99.90;;;;;;4861336;29;20057;-56
2023/07/31 04:57:45;;;;;;;3.28;1.20;;;18.00;99.90;;;;;;4844886;29;20452;-51
2023/07/31 05:00:12;;;;;;;2.00;0.80;;;18.00;99.90;;;;;;4860722;29;20085;-54
2023/07/31 05:02:38;;;;;;;1.95;0.88;;;18.00;99.90;;;;;;4860889;29;20506;-54
2023/07/31 05:05:05;;;;;;;2.47;1.00;;;18.00;99.90;;;;;;4859499;29;20088;-55
2023/07/31 05:07:32;;;;;;;3.88;1.00;;;18.00;99.90;;;;;;4861185;29;20129;-56
2023/07/31 05:09:59;;;;;;;4.82;1.20;;;18.00;99.90;;;;;;4860601;29;20392;-57
2023/07/31 05:12:26;;;;;;;3.40;0.98;;;18.00;99.90;;;;;;4861186;29;20133;-58
2023/07/31 05:14:52;;;;;;;2.42;0.80;;;18.00;99.90;;;;;;4860706;29;20037;-56
2023/07/31 05:17:19;;;;;;;4.05;1.35;;;18.00;99.90;;;;;;4861088;29;20406;-54
2023/07/31 05:19:46;;;;;;;2.05;0.73;;;18.00;99.90;;;;;;4860582;29;20049;-57
2023/07/31 05:22:13;;;;;;;3.60;0.80;;;18.10;99.90;;;;;;4860531;29;20053;-57
2023/07/31 05:24:39;;;;;;;2.05;1.13;;;18.10;99.90;;;;;;4862713;29;20038;-53
2023/07/31 05:27:06;;;;;;;2.22;1.20;;;18.10;99.90;;;;;;4863987;29;20052;-54
2023/07/31 05:29:33;;;;;;;3.05;1.15;;;18.10;99.90;;;;;;4863996;29;20050;-53
2023/07/31 05:32:00;;;;;;;3.50;1.10;;;18.10;99.90;;;;;;4864326;29;20057;-52
2023/07/31 05:34:27;;;;;;;2.28;1.10;;;18.20;99.90;;;;;;4863832;29;20053;-57
2023/07/31 05:36:53;;;;;;;4.40;1.20;;;18.10;99.90;;;;;;4864089;29;20048;-56
2023/07/31 05:39:20;;;;;;;3.97;1.10;;;18.20;99.90;;;;;;4864164;29;20041;-55
2023/07/31 05:41:47;;;;;;;2.45;0.90;;;18.20;99.90;;;;;;4863904;29;20124;-50
2023/07/31 05:44:14;;;;;;;3.25;1.00;;;18.30;99.90;;;;;;4864280;29;20045;-48
2023/07/31 05:46:41;;;;;;;4.90;1.00;;;18.30;99.90;;;;;;4847554;29;20145;-49
2023/07/31 05:49:08;;;;;;;3.03;1.08;;;18.30;99.90;;;;;;4863583;29;20049;-49
2023/07/31 05:51:35;;;;;;;3.45;1.00;;;18.40;99.90;;;;;;4863456;29;20046;-49
2023/07/31 05:54:02;;;;;;;6.97;1.42;;;18.40;99.90;;;;;;4862708;29;20045;-48
2023/07/31 05:56:28;;;;;;;3.38;1.23;;;18.50;99.90;;;;;;4863632;29;20046;-51
2023/07/31 05:58:57;;;;;;;3.15;1.33;;;18.50;99.90;;;;;;4863626;29;20481;-52
2023/07/31 06:01:23;;;;;;;4.07;1.10;;;18.50;99.90;;;;;;4863844;29;20046;-48
2023/07/31 06:03:50;;;;;;;3.92;0.90;;;18.50;99.90;;;;;;4863661;29;20064;-52
2023/07/31 06:06:17;;;;;;;3.58;1.20;;;18.50;99.90;;;;;;4863474;29;20057;-53
2023/07/31 06:08:44;;;;;;;4.18;1.20;;;18.60;99.90;;;;;;4863341;29;20050;-57
2023/07/31 06:11:11;;;;;;;2.78;1.00;;;18.60;99.90;;;;;;4863612;29;20045;-52
2023/07/31 06:13:38;;;;;;;3.83;1.20;;;18.60;99.90;;;;;;4863159;29;20054;-51
2023/07/31 06:16:06;;;;;;;4.85;1.02;;;18.70;99.90;;;;;;4863243;29;20046;-49
2023/07/31 06:18:33;;;;;;;3.15;1.10;;;18.70;99.90;;;;;;4863358;29;20045;-50
2023/07/31 06:21:00;;;;;;;3.17;1.40;;;18.70;99.90;;;;;;4863202;29;20474;-55
2023/07/31 06:23:27;;;;;;;3.40;1.20;;;18.80;99.90;;;;;;4863604;29;20127;-53
2023/07/31 06:25:53;;;;;;;6.70;1.27;;;18.80;99.90;;;;;;4862089;29;20402;-57
2023/07/31 06:28:20;;;;;;;2.63;1.15;;;18.80;99.90;;;;;;4862879;29;20101;-50
2023/07/31 06:30:47;;;;;;;6.18;1.45;;;18.90;99.90;;;;;;4863257;29;20049;-56
2023/07/31 06:33:14;;;;;;;3.38;1.20;;;18.90;99.90;;;;;;4861815;29;20427;-50
2023/07/31 06:35:41;;;;;;;3.63;1.40;;;19.00;99.90;;;;;;4862568;29;20394;-50
2023/07/31 06:38:08;;;;;;;2.70;1.00;;;19.00;99.90;;;;;;4862773;29;20047;-52
2023/07/31 06:40:35;;;;;;;4.88;1.50;;;19.10;99.90;;;;;;4862265;29;20041;-52
2023/07/31 06:43:07;;;;;;;5.97;1.30;;;19.20;99.90;;;;;;4861638;29;20482;-51
2023/07/31 06:45:34;;;;;;;3.83;1.30;;;19.20;99.90;;;;;;4861639;29;20054;-57
2023/07/31 06:48:01;;;;;;;4.25;1.40;;;19.30;99.90;;;;;;4861327;29;20049;-50
2023/07/31 06:50:28;;;;;;;3.63;1.35;;;19.40;99.90;;;;;;4861496;29;20401;-52
2023/07/31 06:52:55;;;;;;;3.13;1.17;;;19.40;99.90;;;;;;4861426;29;20052;-53
2023/07/31 06:55:22;;;;;;;3.13;1.17;;;19.30;99.90;;;;;;4861710;29;20049;-56
2023/07/31 06:57:49;;;;;;;3.28;1.40;;;19.30;99.90;;;;;;4862341;29;20042;-53
2023/07/31 07:00:16;;;;;;;4.53;1.25;;;19.30;99.90;;;;;;4862915;29;20042;-52
2023/07/31 07:02:42;;;;;;;4.60;1.48;;;19.30;99.90;;;;;;4861533;29;20497;-50
2023/07/31 07:05:09;;;;;;;3.95;1.20;;;19.30;99.90;;;;;;4862465;29;20384;-51
2023/07/31 07:07:36;;;;;;;3.38;1.23;;;19.30;99.90;;;;;;4861250;29;20502;-52
2023/07/31 07:10:03;;;;;;;2.67;1.00;;;19.30;99.90;;;;;;4862708;29;20050;-54
2023/07/31 07:12:30;;;;;;;4.38;1.30;;;19.40;99.90;;;;;;4861377;29;20046;-50
2023/07/31 07:15:00;;;;;;;3.22;1.02;;;19.40;99.90;;;;;;4861024;29;20482;-50
2023/07/31 07:17:26;;;;;;;3.35;1.13;;;19.40;99.90;;;;;;4862416;29;20454;-51
2023/07/31 07:19:53;;;;;;;4.82;1.15;;;19.40;99.90;;;;;;4862059;29;20501;-53
2023/07/31 07:22:20;;;;;;;6.38;1.42;;;19.50;99.90;;;;;;4860797;29;20164;-53
2023/07/31 07:24:47;;;;;;;2.80;0.90;;;19.60;99.90;;;;;;4862585;29;20124;-52
2023/07/31 07:27:14;;;;;;;3.63;1.27;;;19.60;99.90;;;;;;4861795;29;20048;-56
2023/07/31 07:29:41;;;;;;;5.45;1.38;;;19.60;99.90;;;;;;4861841;29;20037;-57
2023/07/31 07:32:08;;;;;;;2.92;0.93;;;19.70;99.90;;;;;;4862189;29;20041;-54
2023/07/31 07:34:34;;;;;;;3.88;1.42;;;19.70;99.90;;;;;;4861963;29;20039;-55
2023/07/31 07:37:01;;;;;;;4.00;1.33;;;19.70;99.90;;;;;;4861560;29;20049;-55
2023/07/31 07:39:28;;;;;;;4.00;1.23;;;19.70;99.90;;;;;;4861683;29;20052;-50
2023/07/31 07:41:55;;;;;;;4.85;1.20;;;19.70;99.90;;;;;;4861567;29;20046;-52
2023/07/31 07:44:22;;;;;;;3.67;1.42;;;19.80;99.90;;;;;;4862059;29;20061;-55
2023/07/31 07:46:48;;;;;;;3.58;1.20;;;19.90;99.90;;;;;;4862197;29;20053;-54
2023/07/31 07:49:15;;;;;;;4.85;1.42;;;20.00;99.90;;;;;;4862038;29;20065;-54
2023/07/31 07:51:42;;;;;;;7.57;1.60;;;20.10;99.90;;;;;;4861903;29;20041;-55
2023/07/31 07:54:09;;;;;;;4.50;1.50;;;20.10;99.90;;;;;;4862010;29;20057;-56
2023/07/31 07:56:36;;;;;;;5.57;1.30;;;20.20;99.90;;;;;;4861505;29;20045;-54
2023/07/31 07:59:04;;;;;;;5.10;1.48;;;20.30;99.90;;;;;;4860200;29;20073;-55
2023/07/31 08:01:30;;;;;;;5.95;1.20;;;20.40;99.90;;;;;;4861693;29;20052;-55
2023/07/31 08:03:57;;;;;;;4.40;1.30;;;20.50;99.90;;;;;;4861761;29;20501;-57
2023/07/31 08:06:24;;;;;;;7.57;1.60;;;20.50;99.90;;;;;;4861799;29;20071;-52
2023/07/31 08:08:51;;;;;;;4.22;1.40;;;20.50;99.90;;;;;;4861448;29;20466;-54
2023/07/31 08:11:18;;;;;;;8.52;1.88;;;20.50;99.90;;;;;;4861940;29;20068;-58
2023/07/31 08:13:44;;;;;;;5.70;1.63;;;20.60;99.90;;;;;;4861543;29;20064;-55
2023/07/31 08:16:11;;;;;;;6.25;1.50;;;20.60;99.90;;;;;;4861240;29;20045;-54
2023/07/31 08:18:40;;;;;;;4.35;1.55;;;20.60;99.90;;;;;;4861426;29;20052;-50
2023/07/31 08:21:07;;;;;;;4.22;1.63;;;20.60;99.90;;;;;;4861042;29;20053;-54
2023/07/31 08:23:34;;;;;;;5.63;1.77;;;20.60;99.90;;;;;;4861363;29;20037;-53
2023/07/31 08:26:00;;;;;;;5.18;2.08;;;20.60;99.90;;;;;;4860557;29;20055;-54
2023/07/31 08:28:27;;;;;;;9.75;1.90;;;20.60;99.90;;;;;;4860997;29;20053;-51
2023/07/31 08:30:54;;;;;;;6.75;1.88;;;20.60;99.90;;;;;;4861191;29;20045;-52
2023/07/31 08:33:21;;;;;;;4.72;1.65;;;20.70;99.90;;;;;;4861456;29;20042;-50
2023/07/31 08:35:48;;;;;;;7.40;2.03;;;20.90;99.90;;;;;;4861453;29;20049;-54
2023/07/31 08:38:15;;;;;;;4.00;1.77;;;21.00;99.90;;;;;;4861416;29;20056;-52
2023/07/31 08:40:42;;;;;;;3.28;1.63;;;21.20;99.90;;;;;;4861309;29;20069;-51
2023/07/31 08:43:09;;;;;;;2.90;1.50;;;21.20;99.90;;;;;;4861326;29;20041;-55
2023/07/31 08:45:35;;;;;;;5.03;1.50;;;21.20;99.90;;;;;;4861415;29;20400;-54
2023/07/31 08:48:02;;;;;;;2.90;1.17;;;21.20;99.90;;;;;;4861234;29;20370;-52
2023/07/31 08:50:29;;;;;;;5.45;1.73;;;21.10;99.90;;;;;;4861323;29;20105;-55
2023/07/31 08:52:56;;;;;;;4.47;1.42;;;21.20;99.90;;;;;;4861122;29;20048;-55
2023/07/31 08:55:24;;;;;;;4.65;1.50;;;21.20;99.90;;;;;;4861049;29;20046;-56
2023/07/31 08:57:52;;;;;;;3.97;1.20;;;21.30;99.90;;;;;;4861170;29;20050;-59
2023/07/31 09:00:20;;;;;;;2.67;1.35;;;21.30;99.90;;;;;;4863852;29;20394;-54
2023/07/31 09:02:47;;;;;;;3.08;1.42;;;21.30;99.90;;;;;;4864524;29;20045;-53
2023/07/31 09:05:14;;;;;;;3.92;1.40;;;21.20;99.90;;;;;;4864675;29;20370;-57
2023/07/31 09:07:40;;;;;;;2.70;1.30;;;21.20;99.90;;;;;;4864586;29;20128;-54
2023/07/31 09:10:07;;;;;;;2.47;1.52;;;21.10;99.90;;;;;;4864497;29;20069;-55
2023/07/31 09:12:34;;;;;;;2.30;1.30;;;21.10;99.90;;;;;;4864546;29;20041;-56
2023/07/31 09:15:01;;;;;;;2.75;1.05;;;21.00;99.90;;;;;;4864967;29;20159;-52
2023/07/31 09:17:28;;;;;;;2.97;1.20;;;21.00;99.90;;;;;;4864360;29;20052;-55
2023/07/31 09:19:55;;;;;;;1.92;1.13;;;21.00;99.90;;;;;;4864476;29;20109;-55
2023/07/31 09:22:22;;;;;;;1.75;1.00;;;20.90;99.90;;;;;;4864190;29;20474;-54
2023/07/31 09:24:48;;;;;;;2.53;1.00;;;21.00;99.90;;;;;;4864527;29;20050;-53
2023/07/31 09:27:15;;;;;;;1.95;0.90;;;21.10;99.90;;;;;;4864753;29;20051;-52
2023/07/31 09:29:42;;;;;;;1.70;0.98;;;21.20;99.90;;;;;;4864329;29;20056;-56
2023/07/31 09:32:09;;;;;;;4.40;1.10;;;21.20;99.90;;;;;;4864143;29;20045;-51
2023/07/31 09:34:36;;;;;;;3.22;1.00;;;21.20;99.90;;;;;;4864178;29;20486;-54
2023/07/31 09:37:02;;;;;;;2.95;0.98;;;21.20;99.90;;;;;;4864270;29;20041;-54
2023/07/31 09:39:29;;;;;;;2.28;0.95;;;21.10;99.90;;;;;;4864134;29;20454;-52
2023/07/31 09:41:56;;;;;;;2.13;1.10;;;21.10;99.90;;;;;;4863949;29;20038;-52
2023/07/31 09:44:23;;;;;;;3.47;1.08;;;21.00;99.90;;;;;;4864037;29;20045;-55
2023/07/31 09:46:50;;;;;;;3.42;1.13;;;20.90;99.90;;;;;;4864146;29;20049;-56
2023/07/31 09:49:16;;;;;;;3.30;0.90;;;20.90;99.90;;;;;;4858064;29;20041;-55
2023/07/31 09:51:43;;;;;;;2.75;0.80;;;20.90;99.90;;;;;;4862064;29;20443;-55
2023/07/31 09:54:11;;;;;;;1.73;0.80;;;20.90;99.90;;;;;;4862633;29;20492;-55
2023/07/31 09:56:38;;;;;;;2.47;0.75;;;20.90;99.90;;;;;;4856792;29;20053;-56
2023/07/31 09:59:05;;;;;;;2.08;0.85;;;21.00;99.90;;;;;;4862878;29;20045;-58
2023/07/31 10:01:32;;;;;;;3.33;0.70;;;21.10;99.90;;;;;;4862953;29;20049;-56
2023/07/31 10:03:59;;;;;;;2.25;0.80;;;21.10;99.90;;;;;;4862548;29;20078;-54
2023/07/31 10:06:25;;;;;;;2.28;0.70;;;21.10;99.90;;;;;;4862650;29;20065;-55
2023/07/31 10:08:52;;;;;;;2.83;0.80;;;21.20;99.90;;;;;;4862953;29;20053;-53
2023/07/31 10:11:19;;;;;;;2.58;1.10;;;21.30;99.90;;;;;;4861644;29;20037;-55
2023/07/31 10:13:46;;;;;;;2.95;0.90;;;21.30;99.90;;;;;;4862468;29;20037;-55
2023/07/31 10:16:13;;;;;;;2.25;1.00;;;21.40;99.90;;;;;;4861959;29;20046;-55
2023/07/31 10:18:39;;;;;;;2.45;0.90;;;21.50;99.90;;;;;;4862454;29;20046;-55
2023/07/31 10:21:06;;;;;;;3.88;1.40;;;21.60;99.90;;;;;;4862622;29;20050;-57
2023/07/31 10:23:33;;;;;;;3.83;0.90;;;21.70;99.90;;;;;;4862479;29;20037;-58
2023/07/31 10:26:00;;;;;;;3.38;1.00;;;21.70;99.90;;;;;;4862455;29;20076;-58
2023/07/31 10:28:27;;;;;;;3.13;0.98;;;21.70;99.90;;;;;;4862114;29;20121;-56
2023/07/31 10:30:53;;;;;;;2.38;1.20;;;21.70;99.90;;;;;;4858898;29;20049;-54
2023/07/31 10:33:20;;;;;;;4.93;1.30;;;21.70;99.90;;;;;;4862686;29;20466;-57
2023/07/31 10:35:59;;;;;;;2.97;1.30;;;21.60;99.90;;;;;;4862868;29;20041;-54
2023/07/31 10:38:26;;;;;;;2.13;1.38;;;21.60;99.90;;;;;;4862463;29;20041;-56
2023/07/31 10:40:53;;;;;;;3.33;1.30;;;21.70;99.90;;;;;;4861414;29;20045;-54
2023/07/31 10:43:19;;;;;;;2.55;1.30;;;21.80;99.90;;;;;;4862632;29;20047;-58
2023/07/31 10:45:47;;;;;;;3.38;1.30;;;22.00;99.90;;;;;;4862824;29;20041;-56
2023/07/31 10:48:14;;;;;;;4.47;1.30;;;22.20;99.90;;;;;;4862471;29;20052;-55
2023/07/31 10:50:41;;;;;;;2.42;1.15;;;22.30;99.90;;;;;;4861608;29;20078;-58
2023/07/31 10:53:08;;;;;;;3.60;1.30;;;22.20;99.90;;;;;;4862633;29;20046;-56
2023/07/31 10:55:35;;;;;;;2.70;1.40;;;22.20;99.90;;;;;;4862220;29;20428;-56
2023/07/31 10:58:01;;;;;;;3.28;1.40;;;22.20;99.90;;;;;;4862305;29;20052;-57
2023/07/31 11:00:28;;;;;;;2.72;1.10;;;22.30;99.90;;;;;;4861053;29;20053;-57
2023/07/31 11:02:55;;;;;;;3.92;1.30;;;22.40;99.90;;;;;;4861169;29;20120;-52
2023/07/31 11:05:22;;;;;;;3.72;1.20;;;22.40;99.90;;;;;;4861497;29;20045;-57
2023/07/31 11:07:49;;;;;;;3.90;1.30;;;22.40;99.90;;;;;;4862444;29;20050;-57
2023/07/31 11:10:16;;;;;;;2.65;1.30;;;22.40;99.90;;;;;;4861682;29;20057;-57
2023/07/31 11:12:42;;;;;;;2.60;1.20;;;22.40;99.90;;;;;;4862089;29;20128;-53
2023/07/31 11:15:11;;;;;;;3.95;1.40;;;22.30;99.90;;;;;;4860755;29;20430;-51
2023/07/31 11:17:38;;;;;;;2.88;1.20;;;22.30;99.90;;;;;;4861862;29;20106;-57
2023/07/31 11:20:05;;;;;;;2.95;1.17;;;22.30;99.90;;;;;;4861903;29;20442;-56
2023/07/31 11:22:32;;;;;;;5.22;1.50;;;22.30;99.90;;;;;;4860880;29;20430;-58
2023/07/31 11:24:58;;;;;;;3.25;1.40;;;22.30;99.90;;;;;;4856918;29;20050;-59
2023/07/31 11:27:25;;;;;;;3.88;1.40;;;22.30;99.90;;;;;;4861912;29;20055;-55
2023/07/31 11:29:52;;;;;;;4.18;1.13;;;22.20;99.90;;;;;;4861111;29;20049;-58
2023/07/31 11:32:19;;;;;;;3.75;1.10;;;22.20;99.90;;;;;;4861875;29;20064;-57
2023/07/31 11:34:46;;;;;;;3.60;1.48;;;22.30;99.90;;;;;;4861967;29;20042;-56
2023/07/31 11:37:12;;;;;;;3.08;1.40;;;22.40;99.90;;;;;;4859989;29;20042;-58
2023/07/31 11:39:39;;;;;;;5.00;1.67;;;22.40;99.90;;;;;;4861949;29;20038;-56
2023/07/31 11:42:06;;;;;;;3.25;1.38;;;22.40;99.90;;;;;;4861186;29;20042;-59
2023/07/31 11:44:33;;;;;;;3.55;1.58;;;22.40;99.90;;;;;;4861657;29;20045;-57
2023/07/31 11:46:59;;;;;;;4.50;1.65;;;22.40;98.20;;;;;;4860970;29;20042;-58
2023/07/31 11:49:26;;;;;;;3.33;1.63;;;22.30;99.20;;;;;;4861274;29;20049;-56
2023/07/31 11:51:53;;;;;;;4.85;1.98;;;22.30;99.00;;;;;;4860969;29;20192;-56
2023/07/31 11:54:20;;;;;;;3.22;1.65;;;22.30;97.80;;;;;;4861275;29;20132;-58
2023/07/31 11:56:47;;;;;;;3.33;1.70;;;22.30;97.30;;;;;;4861330;29;20049;-56
2023/07/31 11:59:14;;;;;;;6.03;1.70;;;22.20;97.20;;;;;;4861478;29;20038;-57
2023/07/31 12:01:40;;;;;;;4.00;1.83;;;22.20;98.10;;;;;;4861063;29;20041;-52
2023/07/31 12:04:07;;;;;;;4.70;1.90;;;22.20;98.00;;;;;;4861564;29;20049;-51
2023/07/31 12:06:34;;;;;;;4.63;1.80;;;22.30;98.10;;;;;;4860984;29;20057;-58
2023/07/31 12:09:01;;;;;;;3.70;1.80;;;22.30;97.90;;;;;;4861197;29;20386;-54
2023/07/31 12:11:28;;;;;;;4.90;2.15;;;22.40;97.80;;;;;;4861060;29;20069;-51
2023/07/31 12:13:55;;;;;;;6.53;2.22;;;22.40;97.70;;;;;;4861406;29;20053;-55
2023/07/31 12:16:21;;;;;;;4.40;1.67;;;22.30;97.50;;;;;;4860662;29;20166;-54
2023/07/31 12:18:48;;;;;;;4.70;2.00;;;22.20;98.00;;;;;;4861256;29;20491;-54
2023/07/31 12:21:15;;;;;;;4.10;2.10;;;22.10;98.30;;;;;;4861016;29;20500;-58
2023/07/31 12:23:42;;;;;;;7.05;2.30;;;22.00;98.40;;;;;;4860510;29;20038;-56
2023/07/31 12:26:09;;;;;;;4.28;2.30;;;21.90;98.70;;;;;;4861122;29;20136;-58
2023/07/31 12:28:36;;;;;;;3.67;2.10;;;21.90;99.30;;;;;;4860788;29;20046;-58
2023/07/31 12:31:03;;;;;;;5.20;1.85;;;21.90;99.40;;;;;;4860555;29;20046;-59
2023/07/31 12:33:30;;;;;;;4.07;1.83;;;21.80;99.20;;;;;;4860769;29;20070;-58
2023/07/31 12:35:57;;;;;;;4.07;1.90;;;21.70;99.50;;;;;;4864627;29;20052;-57
2023/07/31 12:38:23;;;;;;;4.50;2.03;;;21.60;99.50;;;;;;4864050;29;20128;-57
2023/07/31 12:40:50;;;;;;;4.47;2.10;;;21.40;99.40;;;;;;4858983;29;20037;-55
2023/07/31 12:43:17;;;;;;;4.75;2.00;;;21.40;99.70;;;;;;4864471;29;20415;-56